• Join FlightAware (Why Join?)
  • Login
  • US Flag 
07:06PM EDT


 

Airport Tracker/Info


-or-


 

Live Flight TrackerFlight Track Log ✈ AWE2690 ✈ 06-Mar-2014 ✈ KMYR - KCLT

Flight Track Log - Related Links

Times and Time Zones

All times are in EST time to prevent confusion due to time zone crossing. See the AWE2690 flight status page for this flight to view local times or setup timezone preferences in your user account.

Time Position Orientation Groundspeed Altitude Reporting Facility
EST Latitude Longitude Course Direction KTS MPH feet Rate Location/Type
11:45AM 33.7486 -78.9836 313° West 198 228 4,400  Level Jacksonville Center
11:46AM 33.8008 -79.0514 313° West 231 266 7,900 2,880 Climbing Jacksonville Center
11:47AM 33.8533 -79.1289 309° West 270 311 10,200 2,940 Climbing Jacksonville Center
11:48AM 33.9717 -79.3040 313° West  Level Estimated
11:48AM 33.9142 -79.2139 311° West 309 356 13,800  Level Jacksonville Center
11:49AM 34.0300 -79.3794 313° West  Level Estimated
11:49AM 33.9772 -79.3039 310° West 334 384 16,100  Level Jacksonville Center
11:50AM 34.0294 -79.3769 311° West 351 404 18,000 1,440 Climbing Jacksonville Center
11:51AM 34.1183 -79.4939 313° West 381 438 19,000 480 Climbing Jacksonville Center
11:52AM 34.1919 -79.5989 310° West 404 465 19,000  Level Jacksonville Center
11:53AM 34.2525 -79.6819 311° West 410 472 19,000  Level Jacksonville Center
11:54AM 34.3350 -79.8072 309° West 410 472 19,000 -480 Level Jacksonville Center
11:55AM 34.4061 -79.9103 310° West 410 472 18,100 -1,380 Descending Jacksonville Center
11:56AM 34.4775 -80.0161 309° West 410 472 16,300 -1,980 Descending Jacksonville Center
11:57AM 34.5422 -80.1172 308° West 405 466 14,200 -2,100 Descending Jacksonville Center
11:58AM 34.6092 -80.2161 309° West 391 450 12,100 -1,680 Descending Jacksonville Center
11:59AM 34.6292 -80.3203 283° West 332 382 11,000 -840 Descending Atlanta Center
11:59AM 34.6344 -80.3581 280° West 303 349 11,000  Level Atlanta Center
12:00PM 34.6967 -80.4211 320° Northwest 291 335 11,000 -120 Level Atlanta Center
12:01PM 34.7614 -80.4864 320° Northwest 301 346 10,800 -960 Descending Atlanta Center
12:02PM 34.7828 -80.5842 285° West 281 323 9,100 -1,380 Descending Atlanta Center
12:03PM 34.7792 -80.6778 267° West 278 320 8,000 -600 Descending Atlanta Center
12:04PM 34.7714 -80.7744 264° West 277 319 8,000  Level Atlanta Center
12:05PM 34.7631 -80.8556 263° West 228 262 8,000  Level Atlanta Center
12:07PM 34.8083 -80.9119 314° West 223 257 8,000 -480 Level Atlanta Center
12:08PM 34.8714 -80.9247 351° North 227 261 7,000 -1,020 Descending Atlanta Center
12:09PM 34.9297 -80.9303 356° North 212 244 6,000 -900 Descending Atlanta Center
12:10PM 34.9883 -80.9356 356° North 215 247 5,200 -1,080 Descending Atlanta Center
12:11PM 35.0428 -80.9411 355° North 209 241 4,000 -1,140 Descending Atlanta Center
12:12PM 35.1411 -80.9478 357° North 170 196 2,000 -960 Descending Atlanta Center
12:13PM 35.1747 -80.9542 351° North 118 136 1,300 -720 Descending Atlanta Center